METAR and TAF’s


Available data for KLBB from the past 2 hours
LUBBOCK, TX
Metar
KLBB 280253Z 16011KT 10SM FEW080 FEW140 SCT250 BKN300 26/14 A2996 RMK AO2 SLP093 OCNL LTGIC DSNT W CB DSNT W MOV E BKN LYR THN T02610144 51006 $

02:53 UTC

Wind: 160° 11kt

Visibility: 10 SM

Sky: FEW 8000 ft

Temp: 26 deg C / 78.8 deg F

Dewpoint: 14 deg C / 57.2 deg F

Pressure: 29.96 inHg

TAF
KLBB 272320Z 2800/2824 18016KT P6SM FEW070 SCT250 SCT300 FM280100 16011KT P6SM FEW150 SCT250 FM281000 20011KT P6SM FEW200 FM281600 20015G25KT P6SM FEW100
Available data for KCVN from the past 2 hours
CLOVIS MUNI, NM